createdAt,value
2023-05-19T00:00:48.536Z,5.22
2023-05-19T00:03:54.546Z,5.53
2023-05-19T00:06:58.847Z,5.28
2023-05-19T00:10:01.277Z,5.07
2023-05-19T00:13:06.706Z,4.40
2023-05-19T00:16:09.495Z,5.53
2023-05-19T00:19:15.064Z,4.15
2023-05-19T00:22:17.227Z,5.20
2023-05-19T00:25:19.398Z,5.15
2023-05-19T00:28:21.484Z,4.60
2023-05-19T00:31:24.155Z,4.85
2023-05-19T00:34:27.329Z,4.82
2023-05-19T00:37:29.418Z,4.13
2023-05-19T00:40:36.508Z,4.50
2023-05-19T00:43:39.856Z,4.10
2023-05-19T00:46:43.359Z,4.35
2023-05-19T00:49:45.565Z,4.45
2023-05-19T00:52:47.982Z,5.07
2023-05-19T00:55:50.581Z,4.28
2023-05-19T00:58:52.835Z,5.07
2023-05-19T01:01:54.988Z,4.78
2023-05-19T01:04:57.425Z,4.57
2023-05-19T01:08:00.646Z,4.70
2023-05-19T01:11:10.025Z,4.70
2023-05-19T01:14:14.625Z,5.57
2023-05-19T01:17:31.786Z,5.03
2023-05-19T01:20:42.814Z,4.30
2023-05-19T01:24:05.142Z,5.10
2023-05-19T01:27:31.079Z,7.13
2023-05-19T01:30:49.180Z,5.20
2023-05-19T01:33:53.721Z,4.80
2023-05-19T01:36:56.683Z,5.22
2023-05-19T01:39:59.094Z,5.53
2023-05-19T01:43:02.894Z,4.25
2023-05-19T01:46:06.938Z,4.85
2023-05-19T01:49:09.582Z,5.22
2023-05-19T01:52:11.685Z,4.95
2023-05-19T01:55:15.482Z,5.35
2023-05-19T01:58:20.845Z,4.45
2023-05-19T02:01:47.778Z,4.32
2023-05-19T02:05:09.891Z,5.03
2023-05-19T02:08:23.212Z,5.07
2023-05-19T02:11:42.244Z,4.85
2023-05-19T02:15:10.987Z,4.30
2023-05-19T02:18:18.100Z,5.55
2023-05-19T02:21:20.390Z,5.53
2023-05-19T02:24:23.107Z,5.03
2023-05-19T02:27:26.408Z,6.10
2023-05-19T02:30:28.520Z,5.82
2023-05-19T02:33:31.657Z,5.10
2023-05-19T02:36:35.445Z,5.38
2023-05-19T02:39:37.461Z,5.40
2023-05-19T02:42:39.701Z,4.50
2023-05-19T02:45:42.095Z,4.80
2023-05-19T02:48:44.246Z,6.15
2023-05-19T02:51:46.298Z,4.97
2023-05-19T02:54:48.554Z,4.72
2023-05-19T02:57:50.829Z,5.55
2023-05-19T03:00:52.950Z,4.50
2023-05-19T03:03:55.091Z,5.60
2023-05-19T03:06:57.883Z,5.25
2023-05-19T03:10:00.202Z,4.90
2023-05-19T03:13:02.323Z,6.65
2023-05-19T03:16:04.474Z,6.07
2023-05-19T03:19:08.806Z,6.10
2023-05-19T03:25:13.440Z,4.60
2023-05-19T03:28:15.719Z,5.82
2023-05-19T03:31:17.947Z,6.13
2023-05-19T03:34:20.212Z,4.78
2023-05-19T03:37:22.351Z,5.45
2023-05-19T03:40:24.494Z,4.78
2023-05-19T03:43:26.565Z,4.15
2023-05-19T03:46:28.713Z,6.32
2023-05-19T03:49:33.581Z,4.75
2023-05-19T03:52:36.501Z,4.93
2023-05-19T03:55:39.586Z,5.30
2023-05-19T03:58:45.294Z,5.88
2023-05-19T04:01:47.782Z,4.78
2023-05-19T04:04:51.272Z,4.93
2023-05-19T04:07:53.521Z,4.75
2023-05-19T04:10:55.720Z,5.03
2023-05-19T04:13:59.576Z,5.90
2023-05-19T04:17:01.781Z,6.32
2023-05-19T04:20:08.309Z,6.53
2023-05-19T04:23:10.625Z,5.30
2023-05-19T04:26:15.007Z,5.60
2023-05-19T04:29:18.472Z,5.67
2023-05-19T04:32:23.147Z,5.17
2023-05-19T04:35:25.540Z,5.18
2023-05-19T04:38:30.146Z,5.63
2023-05-19T04:44:34.388Z,4.00
2023-05-19T04:47:38.271Z,5.18
2023-05-19T04:50:42.213Z,5.32
2023-05-19T04:53:44.341Z,4.97
2023-05-19T04:56:49.129Z,5.72
2023-05-19T04:59:51.240Z,5.10
2023-05-19T05:02:56.232Z,4.00
2023-05-19T05:06:00.035Z,4.55
2023-05-19T05:09:04.202Z,4.25
2023-05-19T05:12:08.408Z,5.07
2023-05-19T05:15:12.373Z,4.32
2023-05-19T05:18:15.405Z,5.10
2023-05-19T05:21:17.866Z,4.38
2023-05-19T05:24:21.571Z,4.75
2023-05-19T05:27:26.296Z,4.88
2023-05-19T05:30:30.992Z,4.70
2023-05-19T05:33:34.770Z,4.10
2023-05-19T05:36:37.002Z,4.78
2023-05-19T05:39:39.188Z,4.43
2023-05-19T05:42:41.858Z,4.93
2023-05-19T05:45:44.041Z,4.85
2023-05-19T05:48:46.645Z,4.15
2023-05-19T05:52:01.857Z,4.13
2023-05-19T05:55:08.398Z,4.15
2023-05-19T05:58:11.693Z,5.10
2023-05-19T06:01:17.005Z,3.88
2023-05-19T06:04:20.596Z,3.90
2023-05-19T06:07:22.898Z,3.20
2023-05-19T06:10:28.097Z,4.43
2023-05-19T06:13:30.273Z,4.22
2023-05-19T06:16:32.534Z,4.65
2023-05-19T06:19:34.717Z,4.72
2023-05-19T06:22:37.442Z,4.35
2023-05-19T06:25:39.545Z,3.47
2023-05-19T06:28:41.653Z,4.72
2023-05-19T06:31:43.985Z,3.85
2023-05-19T06:34:46.568Z,3.33
2023-05-19T06:37:49.648Z,4.20
2023-05-19T06:40:51.769Z,3.83
2023-05-19T06:43:53.882Z,3.60
2023-05-19T06:46:55.995Z,3.63
2023-05-19T06:50:13.617Z,3.60
2023-05-19T06:53:17.785Z,4.40
2023-05-19T06:59:23.298Z,3.50
2023-05-19T07:02:25.588Z,3.70
2023-05-19T07:05:27.896Z,3.72
2023-05-19T07:08:30.218Z,3.03
2023-05-19T07:11:33.878Z,3.15
2023-05-19T07:14:37.694Z,4.63
2023-05-19T07:17:40.148Z,3.47
2023-05-19T07:20:42.419Z,4.10
2023-05-19T07:23:44.670Z,3.33
2023-05-19T07:26:46.838Z,2.70
2023-05-19T07:29:48.915Z,3.60
2023-05-19T07:32:51.071Z,3.90
2023-05-19T07:35:53.919Z,3.92
2023-05-19T07:38:56.297Z,4.53
2023-05-19T07:41:59.466Z,4.87
2023-05-19T07:45:03.570Z,6.07
2023-05-19T07:48:05.968Z,5.82
2023-05-19T07:51:10.353Z,6.35
2023-05-19T07:54:12.555Z,7.45
2023-05-19T07:57:14.870Z,8.77
2023-05-19T08:00:17.859Z,9.75
2023-05-19T08:03:21.039Z,9.80
2023-05-19T08:06:23.534Z,9.95
2023-05-19T08:09:25.707Z,11.32
2023-05-19T08:12:29.320Z,12.55
2023-05-19T08:15:31.829Z,14.15
2023-05-19T08:18:38.456Z,12.90
2023-05-19T08:21:42.426Z,12.35
2023-05-19T08:24:45.278Z,13.80
2023-05-19T08:27:47.608Z,12.43
2023-05-19T08:30:52.658Z,11.05
2023-05-19T08:33:54.765Z,12.07
2023-05-19T08:36:57.916Z,12.55
2023-05-19T08:40:00.060Z,12.13
2023-05-19T08:43:02.220Z,12.38
2023-05-19T08:46:05.060Z,10.73
2023-05-19T08:49:13.315Z,11.35
2023-05-19T08:52:25.229Z,11.35
2023-05-19T08:55:41.273Z,10.30
2023-05-19T08:58:46.054Z,9.55
2023-05-19T09:01:49.030Z,10.80
2023-05-19T09:04:51.439Z,10.48
2023-05-19T09:07:55.229Z,10.23
2023-05-19T09:10:57.614Z,9.13
2023-05-19T09:13:59.886Z,10.05
2023-05-19T09:17:02.483Z,11.15
2023-05-19T09:20:11.458Z,9.95
2023-05-19T09:23:18.398Z,11.32
2023-05-19T09:26:23.554Z,9.88
2023-05-19T09:29:26.268Z,10.38
2023-05-19T09:32:28.856Z,10.68
2023-05-19T09:35:31.106Z,10.23
2023-05-19T09:38:33.783Z,8.93
2023-05-19T09:41:36.254Z,9.82
2023-05-19T09:44:38.510Z,9.68
2023-05-19T09:47:42.270Z,10.25
2023-05-19T09:50:48.826Z,10.45
2023-05-19T09:53:52.196Z,9.57
2023-05-19T09:57:01.698Z,11.02
2023-05-19T10:00:12.123Z,10.25
2023-05-19T10:03:14.887Z,10.13
2023-05-19T10:06:19.266Z,10.75
2023-05-19T10:09:26.348Z,9.68
2023-05-19T10:12:29.086Z,10.40
2023-05-19T10:15:32.091Z,9.10
2023-05-19T10:18:37.520Z,9.75
2023-05-19T10:21:41.376Z,9.52
2023-05-19T10:24:44.614Z,10.25
2023-05-19T10:28:14.049Z,10.77
2023-05-19T10:31:21.864Z,9.73
2023-05-19T10:34:54.463Z,9.32
2023-05-19T10:38:08.572Z,8.90
2023-05-19T10:44:18.102Z,9.60
2023-05-19T10:47:26.897Z,10.40
2023-05-19T10:50:37.779Z,9.35
2023-05-19T10:53:46.548Z,9.60
2023-05-19T10:56:49.049Z,9.38
2023-05-19T10:59:51.462Z,9.93
2023-05-19T11:02:56.448Z,9.20
2023-05-19T11:06:34.125Z,10.68
2023-05-19T11:09:41.114Z,10.40
2023-05-19T11:12:45.976Z,9.73
2023-05-19T11:15:48.307Z,10.45
2023-05-19T11:18:50.787Z,10.13
2023-05-19T11:21:57.652Z,10.90
2023-05-19T11:25:01.234Z,9.45
2023-05-19T11:28:05.612Z,9.90
2023-05-19T11:31:10.556Z,9.25
2023-05-19T11:34:13.997Z,9.77
2023-05-19T11:37:16.351Z,8.85
2023-05-19T11:40:18.612Z,9.43
2023-05-19T11:43:24.187Z,10.88
2023-05-19T11:46:26.339Z,9.20
2023-05-19T11:49:29.826Z,9.73
2023-05-19T11:52:31.990Z,10.60
2023-05-19T11:55:34.257Z,9.93
2023-05-19T11:58:37.958Z,10.52
2023-05-19T12:01:40.068Z,11.27
2023-05-19T12:04:42.212Z,10.55
2023-05-19T12:07:44.447Z,10.10
2023-05-19T12:10:51.999Z,11.68
2023-05-19T12:13:58.924Z,11.75
2023-05-19T12:17:11.436Z,13.88
2023-05-19T12:20:19.032Z,11.40
2023-05-19T12:23:21.448Z,12.70
2023-05-19T12:26:23.719Z,12.20
2023-05-19T12:29:29.267Z,11.57
2023-05-19T12:32:34.706Z,13.10
2023-05-19T12:35:38.178Z,11.60
2023-05-19T12:38:42.391Z,14.35
2023-05-19T12:41:45.777Z,11.15
2023-05-19T12:44:52.794Z,14.15
2023-05-19T12:47:55.507Z,13.65
2023-05-19T12:50:57.702Z,12.25
2023-05-19T12:54:03.764Z,13.20
2023-05-19T12:57:06.707Z,11.10
2023-05-19T13:00:15.429Z,14.75
2023-05-19T13:03:19.833Z,12.35
2023-05-19T13:06:23.090Z,12.13
2023-05-19T13:09:25.300Z,14.48
2023-05-19T13:12:27.669Z,13.00
2023-05-19T13:15:34.485Z,12.88
2023-05-19T13:18:38.564Z,14.25
2023-05-19T13:21:40.781Z,13.27
2023-05-19T13:24:42.909Z,12.82
2023-05-19T13:27:46.141Z,12.13
2023-05-19T13:30:49.758Z,12.38
2023-05-19T13:33:51.940Z,13.60
2023-05-19T13:36:54.030Z,14.60
2023-05-19T13:40:01.072Z,12.90
2023-05-19T13:43:04.204Z,12.25
2023-05-19T13:46:06.431Z,14.20
2023-05-19T13:49:08.504Z,14.05
2023-05-19T13:52:11.661Z,11.07
2023-05-19T13:55:13.825Z,7.07
2023-05-19T13:58:17.110Z,6.03
2023-05-19T14:01:19.447Z,7.30
2023-05-19T14:04:23.774Z,4.85
2023-05-19T14:07:26.063Z,3.95
2023-05-19T14:10:28.084Z,4.55
2023-05-19T14:13:34.724Z,4.40
2023-05-19T14:16:41.163Z,5.15
2023-05-19T14:19:43.430Z,6.03
2023-05-19T14:22:45.550Z,4.85
2023-05-19T14:25:47.622Z,4.47
2023-05-19T14:28:49.939Z,4.82
2023-05-19T14:32:03.201Z,4.70
2023-05-19T14:35:06.197Z,3.17
2023-05-19T14:38:08.519Z,4.82
2023-05-19T14:41:10.779Z,5.65
2023-05-19T14:44:12.894Z,4.60
2023-05-19T14:47:15.065Z,5.78
2023-05-19T14:50:17.268Z,5.95
2023-05-19T14:53:19.628Z,4.82
2023-05-19T14:56:25.327Z,4.85
2023-05-19T14:59:27.614Z,4.82
2023-05-19T15:02:30.194Z,4.35
2023-05-19T15:05:34.506Z,5.13
2023-05-19T15:08:38.031Z,4.90
2023-05-19T15:11:40.122Z,5.90
2023-05-19T15:14:42.295Z,5.97
2023-05-19T15:17:46.397Z,5.90
2023-05-19T15:20:48.844Z,5.68
2023-05-19T15:23:51.260Z,5.38
2023-05-19T15:26:54.520Z,5.95
2023-05-19T15:29:56.739Z,4.97
2023-05-19T15:32:59.043Z,5.07
2023-05-19T15:36:01.293Z,5.53
2023-05-19T15:39:04.044Z,5.07
2023-05-19T15:42:12.024Z,5.88
2023-05-19T15:45:14.340Z,5.65
2023-05-19T15:48:16.634Z,4.50
2023-05-19T15:51:20.281Z,4.80
2023-05-19T15:54:22.383Z,7.00
2023-05-19T15:57:24.680Z,5.43
2023-05-19T16:00:26.938Z,4.93
2023-05-19T16:03:30.133Z,5.30
2023-05-19T16:06:35.272Z,6.47
2023-05-19T16:09:37.347Z,5.25
2023-05-19T16:12:39.468Z,5.57
2023-05-19T16:15:41.537Z,6.38
2023-05-19T16:18:44.463Z,5.13
2023-05-19T16:21:47.072Z,4.47
2023-05-19T16:24:49.192Z,5.45
2023-05-19T16:27:52.509Z,5.15
2023-05-19T16:31:01.164Z,5.45
2023-05-19T16:34:03.387Z,4.63
2023-05-19T16:37:05.548Z,5.50
2023-05-19T16:40:08.411Z,5.68
2023-05-19T16:43:10.603Z,5.93
2023-05-19T16:46:12.895Z,5.78
2023-05-19T16:49:15.011Z,6.35
2023-05-19T16:52:17.118Z,6.22
2023-05-19T16:55:20.257Z,5.40
2023-05-19T16:58:22.444Z,7.10
2023-05-19T17:01:24.620Z,7.32
2023-05-19T17:04:28.667Z,5.78
2023-05-19T17:07:32.787Z,6.13
2023-05-19T17:10:36.068Z,5.65
2023-05-19T17:13:38.371Z,5.85
2023-05-19T17:16:40.443Z,5.38
2023-05-19T17:19:42.899Z,6.50
2023-05-19T17:22:45.103Z,5.65
2023-05-19T17:25:47.353Z,5.43
2023-05-19T17:28:49.693Z,4.97
2023-05-19T17:31:51.884Z,7.03
2023-05-19T17:34:54.543Z,5.47
2023-05-19T17:37:58.040Z,4.50
2023-05-19T17:41:09.721Z,5.25
2023-05-19T17:44:12.422Z,6.50
2023-05-19T17:47:14.728Z,7.22
2023-05-19T17:50:16.960Z,4.38
2023-05-19T17:53:19.596Z,5.07
2023-05-19T17:56:22.985Z,5.60
2023-05-19T17:59:25.816Z,7.68
2023-05-19T18:02:28.151Z,6.55
2023-05-19T18:05:30.914Z,4.55
2023-05-19T18:08:33.544Z,6.22
2023-05-19T18:11:36.613Z,5.95
2023-05-19T18:14:39.164Z,5.68
2023-05-19T18:17:41.451Z,5.90
2023-05-19T18:20:45.655Z,6.25
2023-05-19T18:26:50.412Z,5.93
2023-05-19T18:29:53.909Z,5.78
2023-05-19T18:32:56.191Z,4.55
2023-05-19T18:35:58.827Z,4.90
2023-05-19T18:39:01.926Z,4.80
2023-05-19T18:42:04.249Z,7.85
2023-05-19T18:45:06.829Z,5.05
2023-05-19T18:48:09.126Z,5.75
2023-05-19T18:51:11.336Z,4.78
2023-05-19T18:54:13.510Z,4.55
2023-05-19T18:57:15.742Z,4.57
2023-05-19T19:00:18.908Z,4.35
2023-05-19T19:03:21.060Z,5.23
2023-05-19T19:06:23.488Z,4.68
2023-05-19T19:09:25.817Z,6.18
2023-05-19T19:12:28.010Z,4.63
2023-05-19T19:15:31.809Z,5.73
2023-05-19T19:18:35.760Z,4.88
2023-05-19T19:21:38.911Z,5.70
2023-05-19T19:24:45.482Z,7.00
2023-05-19T19:27:47.571Z,6.63
2023-05-19T19:30:50.548Z,6.38
2023-05-19T19:33:52.761Z,5.00
2023-05-19T19:36:54.992Z,4.85
2023-05-19T19:39:57.068Z,6.03
2023-05-19T19:42:59.179Z,5.15
2023-05-19T19:46:03.358Z,6.10
2023-05-19T19:49:05.767Z,6.03
2023-05-19T19:52:07.813Z,4.85
2023-05-19T19:55:10.954Z,5.72
2023-05-19T19:58:13.034Z,5.32
2023-05-19T20:01:23.871Z,5.95
2023-05-19T20:04:27.546Z,5.20
2023-05-19T20:07:34.187Z,5.25
2023-05-19T20:10:36.340Z,6.00
2023-05-19T20:13:38.500Z,5.18
2023-05-19T20:16:41.206Z,5.88
2023-05-19T20:19:43.771Z,5.75
2023-05-19T20:22:46.154Z,5.82
2023-05-19T20:26:02.947Z,5.07
2023-05-19T20:29:11.390Z,4.70
2023-05-19T20:32:13.555Z,6.50
2023-05-19T20:35:16.025Z,5.88
2023-05-19T20:38:18.474Z,6.78
2023-05-19T20:41:20.826Z,5.35
2023-05-19T20:44:24.273Z,6.60
2023-05-19T20:47:28.233Z,4.85
2023-05-19T20:50:32.212Z,5.20
2023-05-19T20:53:34.518Z,5.63
2023-05-19T20:56:37.696Z,5.25
2023-05-19T20:59:40.110Z,5.13
2023-05-19T21:02:42.460Z,5.35
2023-05-19T21:05:44.859Z,6.00
2023-05-19T21:08:46.953Z,6.45
2023-05-19T21:11:48.996Z,5.57
2023-05-19T21:14:51.926Z,5.70
2023-05-19T21:17:54.107Z,6.97
2023-05-19T21:20:56.293Z,6.60
2023-05-19T21:23:58.562Z,6.30
2023-05-19T21:27:00.850Z,6.28
2023-05-19T21:30:03.072Z,6.78
2023-05-19T21:33:05.375Z,6.15
2023-05-19T21:36:08.677Z,5.32
2023-05-19T21:39:10.851Z,5.72
2023-05-19T21:42:13.059Z,5.63
2023-05-19T21:45:15.390Z,5.80
2023-05-19T21:48:17.761Z,4.90
2023-05-19T21:51:19.996Z,4.63
2023-05-19T21:54:22.059Z,5.25
2023-05-19T21:57:24.368Z,5.68
2023-05-19T22:00:26.410Z,5.70
2023-05-19T22:03:29.135Z,5.63
2023-05-19T22:06:31.643Z,5.15
2023-05-19T22:09:36.706Z,4.40
2023-05-19T22:12:38.900Z,5.30
2023-05-19T22:15:41.932Z,6.53
2023-05-19T22:18:44.419Z,6.53
2023-05-19T22:21:46.691Z,5.03
2023-05-19T22:24:51.272Z,4.85
2023-05-19T22:27:56.740Z,5.13
2023-05-19T22:30:58.814Z,4.50
2023-05-19T22:34:19.323Z,5.18
2023-05-19T22:37:24.468Z,5.10
2023-05-19T22:40:26.692Z,4.43
2023-05-19T22:43:28.786Z,5.20
2023-05-19T22:46:31.956Z,4.55
2023-05-19T22:49:34.179Z,4.40
2023-05-19T22:52:39.725Z,4.60
2023-05-19T22:55:41.882Z,4.85
2023-05-19T22:58:44.122Z,4.40
2023-05-19T23:01:46.854Z,5.50
2023-05-19T23:04:49.152Z,5.43
2023-05-19T23:07:51.372Z,5.15
2023-05-19T23:10:53.548Z,4.75
2023-05-19T23:13:55.692Z,4.43
2023-05-19T23:16:57.985Z,5.18
2023-05-19T23:20:01.070Z,4.63
2023-05-19T23:23:05.933Z,5.00
2023-05-19T23:26:07.993Z,5.35
2023-05-19T23:29:13.848Z,5.57
2023-05-19T23:32:16.148Z,4.75
2023-05-19T23:35:18.552Z,4.10
2023-05-19T23:38:21.007Z,5.10
2023-05-19T23:41:23.058Z,5.43
2023-05-19T23:44:27.359Z,4.30
2023-05-19T23:47:29.536Z,4.90
2023-05-19T23:50:31.814Z,5.28
2023-05-19T23:53:33.945Z,4.28
2023-05-19T23:56:36.018Z,4.57
2023-05-19T23:59:38.381Z,6.40
